sensor_id;sensor_type;location;lat;lon;timestamp;temperature;humidity
1778;DHT22;886;50.082;8.222;2022-12-18T00:01:25;-4.70;99.90
1778;DHT22;886;50.082;8.222;2022-12-18T00:03:55;-4.70;99.90
1778;DHT22;886;50.082;8.222;2022-12-18T00:06:28;-4.70;99.90
1778;DHT22;886;50.082;8.222;2022-12-18T00:08:57;-4.70;99.90
1778;DHT22;886;50.082;8.222;2022-12-18T00:11:26;-4.80;99.90
1778;DHT22;886;50.082;8.222;2022-12-18T00:13:56;-4.80;99.90
1778;DHT22;886;50.082;8.222;2022-12-18T00:16:26;-5.00;99.90
1778;DHT22;886;50.082;8.222;2022-12-18T00:18:55;-5.00;99.90
1778;DHT22;886;50.082;8.222;2022-12-18T00:21:23;-5.10;99.90
1778;DHT22;886;50.082;8.222;2022-12-18T00:23:54;-5.00;99.90
1778;DHT22;886;50.082;8.222;2022-12-18T00:26:26;-5.10;99.90
1778;DHT22;886;50.082;8.222;2022-12-18T00:29:02;-5.30;99.90
1778;DHT22;886;50.082;8.222;2022-12-18T00:31:32;-5.40;99.90
1778;DHT22;886;50.082;8.222;2022-12-18T00:34:00;-5.30;99.90
1778;DHT22;886;50.082;8.222;2022-12-18T00:36:32;-5.40;99.90
1778;DHT22;886;50.082;8.222;2022-12-18T00:39:05;-5.40;99.90
1778;DHT22;886;50.082;8.222;2022-12-18T00:41:36;-5.40;99.90
1778;DHT22;886;50.082;8.222;2022-12-18T00:44:22;-5.40;99.90
1778;DHT22;886;50.082;8.222;2022-12-18T00:46:50;-5.50;99.90
1778;DHT22;886;50.082;8.222;2022-12-18T00:49:26;-5.50;99.90
1778;DHT22;886;50.082;8.222;2022-12-18T00:51:56;-5.50;99.90
1778;DHT22;886;50.082;8.222;2022-12-18T00:54:26;-5.40;99.90
1778;DHT22;886;50.082;8.222;2022-12-18T00:56:54;-5.50;99.90
1778;DHT22;886;50.082;8.222;2022-12-18T00:59:22;-5.50;99.90
1778;DHT22;886;50.082;8.222;2022-12-18T01:01:49;-5.60;99.90
1778;DHT22;886;50.082;8.222;2022-12-18T01:04:17;-5.60;99.90
1778;DHT22;886;50.082;8.222;2022-12-18T01:06:45;-5.60;99.90
1778;DHT22;886;50.082;8.222;2022-12-18T01:09:13;-5.50;99.90
1778;DHT22;886;50.082;8.222;2022-12-18T01:11:42;-5.60;99.90
1778;DHT22;886;50.082;8.222;2022-12-18T01:14:10;-5.60;99.90
1778;DHT22;886;50.082;8.222;2022-12-18T01:16:37;-5.60;99.90
1778;DHT22;886;50.082;8.222;2022-12-18T01:19:05;-5.70;99.90
1778;DHT22;886;50.082;8.222;2022-12-18T01:21:33;-5.80;99.90
1778;DHT22;886;50.082;8.222;2022-12-18T01:24:02;-5.70;99.90
1778;DHT22;886;50.082;8.222;2022-12-18T01:26:30;-5.70;99.90
1778;DHT22;886;50.082;8.222;2022-12-18T01:29:03;-5.70;99.90
1778;DHT22;886;50.082;8.222;2022-12-18T01:31:32;-5.70;99.90
1778;DHT22;886;50.082;8.222;2022-12-18T01:34:01;-5.60;99.90
1778;DHT22;886;50.082;8.222;2022-12-18T01:36:34;-5.60;99.90
1778;DHT22;886;50.082;8.222;2022-12-18T01:39:04;-5.60;99.90
1778;DHT22;886;50.082;8.222;2022-12-18T01:41:33;-5.60;99.90
1778;DHT22;886;50.082;8.222;2022-12-18T01:44:55;-5.60;99.90
1778;DHT22;886;50.082;8.222;2022-12-18T01:47:33;-5.70;99.90
1778;DHT22;886;50.082;8.222;2022-12-18T01:50:11;-5.70;99.90
1778;DHT22;886;50.082;8.222;2022-12-18T01:52:47;-5.70;99.90
1778;DHT22;886;50.082;8.222;2022-12-18T01:55:36;-5.60;99.90
1778;DHT22;886;50.082;8.222;2022-12-18T01:58:14;-5.80;99.90
1778;DHT22;886;50.082;8.222;2022-12-18T02:01:00;-5.80;99.90
1778;DHT22;886;50.082;8.222;2022-12-18T02:03:32;-5.80;99.90
1778;DHT22;886;50.082;8.222;2022-12-18T02:06:06;-5.80;99.90
1778;DHT22;886;50.082;8.222;2022-12-18T02:08:47;-5.90;99.90
1778;DHT22;886;50.082;8.222;2022-12-18T02:11:28;-5.70;99.90
1778;DHT22;886;50.082;8.222;2022-12-18T02:14:11;-5.80;99.90
1778;DHT22;886;50.082;8.222;2022-12-18T02:16:52;-5.80;99.90
1778;DHT22;886;50.082;8.222;2022-12-18T02:19:39;-5.90;99.90
1778;DHT22;886;50.082;8.222;2022-12-18T02:22:24;-5.90;99.90
1778;DHT22;886;50.082;8.222;2022-12-18T02:25:01;-5.80;99.90
1778;DHT22;886;50.082;8.222;2022-12-18T02:27:44;-5.80;99.90
1778;DHT22;886;50.082;8.222;2022-12-18T02:30:13;-5.70;99.90
1778;DHT22;886;50.082;8.222;2022-12-18T02:32:43;-5.70;99.90
1778;DHT22;886;50.082;8.222;2022-12-18T02:35:15;-5.70;99.90
1778;DHT22;886;50.082;8.222;2022-12-18T02:37:49;-5.60;99.90
1778;DHT22;886;50.082;8.222;2022-12-18T02:40:19;-5.70;99.90
1778;DHT22;886;50.082;8.222;2022-12-18T02:42:51;-5.80;99.90
1778;DHT22;886;50.082;8.222;2022-12-18T02:45:23;-6.00;99.90
1778;DHT22;886;50.082;8.222;2022-12-18T02:47:52;-5.90;99.90
1778;DHT22;886;50.082;8.222;2022-12-18T02:50:25;-5.80;99.90
1778;DHT22;886;50.082;8.222;2022-12-18T02:53:12;-5.80;99.90
1778;DHT22;886;50.082;8.222;2022-12-18T02:55:52;-5.90;99.90
1778;DHT22;886;50.082;8.222;2022-12-18T02:58:41;-5.80;99.90
1778;DHT22;886;50.082;8.222;2022-12-18T03:01:16;-5.90;99.90
1778;DHT22;886;50.082;8.222;2022-12-18T03:03:51;-5.90;99.90
1778;DHT22;886;50.082;8.222;2022-12-18T03:06:23;-5.90;99.90
1778;DHT22;886;50.082;8.222;2022-12-18T03:08:59;-5.90;99.90
1778;DHT22;886;50.082;8.222;2022-12-18T03:11:33;-5.90;99.90
1778;DHT22;886;50.082;8.222;2022-12-18T03:14:29;-5.80;99.90
1778;DHT22;886;50.082;8.222;2022-12-18T03:17:03;-5.90;99.90
1778;DHT22;886;50.082;8.222;2022-12-18T03:19:42;-5.80;99.90
1778;DHT22;886;50.082;8.222;2022-12-18T03:22:10;-5.80;99.90
1778;DHT22;886;50.082;8.222;2022-12-18T03:24:39;-5.80;99.90
1778;DHT22;886;50.082;8.222;2022-12-18T03:27:12;-5.90;99.90
1778;DHT22;886;50.082;8.222;2022-12-18T03:29:45;-5.90;99.90
1778;DHT22;886;50.082;8.222;2022-12-18T03:32:23;-5.80;99.90
1778;DHT22;886;50.082;8.222;2022-12-18T03:34:58;-5.80;99.90
1778;DHT22;886;50.082;8.222;2022-12-18T03:37:37;-5.80;99.90
1778;DHT22;886;50.082;8.222;2022-12-18T03:40:05;-5.90;99.90
1778;DHT22;886;50.082;8.222;2022-12-18T03:42:39;-5.90;99.90
1778;DHT22;886;50.082;8.222;2022-12-18T03:45:16;-5.80;99.90
1778;DHT22;886;50.082;8.222;2022-12-18T03:48:00;-5.90;99.90
1778;DHT22;886;50.082;8.222;2022-12-18T03:50:37;-5.90;99.90
1778;DHT22;886;50.082;8.222;2022-12-18T03:53:17;-5.90;99.90
1778;DHT22;886;50.082;8.222;2022-12-18T03:55:48;-5.90;99.90
1778;DHT22;886;50.082;8.222;2022-12-18T03:58:20;-6.10;99.90
1778;DHT22;886;50.082;8.222;2022-12-18T04:00:53;-5.90;99.90
1778;DHT22;886;50.082;8.222;2022-12-18T04:03:23;-6.00;99.90
1778;DHT22;886;50.082;8.222;2022-12-18T04:05:54;-6.00;99.90
1778;DHT22;886;50.082;8.222;2022-12-18T04:08:23;-5.90;99.90
1778;DHT22;886;50.082;8.222;2022-12-18T04:10:51;-5.90;99.90
1778;DHT22;886;50.082;8.222;2022-12-18T04:13:22;-5.90;99.90
1778;DHT22;886;50.082;8.222;2022-12-18T04:15:51;-5.90;99.90
1778;DHT22;886;50.082;8.222;2022-12-18T04:18:18;-5.90;99.90
1778;DHT22;886;50.082;8.222;2022-12-18T04:20:45;-6.00;99.90
1778;DHT22;886;50.082;8.222;2022-12-18T04:23:12;-5.90;99.90
1778;DHT22;886;50.082;8.222;2022-12-18T04:25:39;-5.90;99.90
1778;DHT22;886;50.082;8.222;2022-12-18T04:28:06;-5.90;99.90
1778;DHT22;886;50.082;8.222;2022-12-18T04:30:34;-5.80;99.90
1778;DHT22;886;50.082;8.222;2022-12-18T04:33:03;-5.80;99.90
1778;DHT22;886;50.082;8.222;2022-12-18T04:35:30;-5.80;99.90
1778;DHT22;886;50.082;8.222;2022-12-18T04:38:00;-5.90;99.90
1778;DHT22;886;50.082;8.222;2022-12-18T04:40:27;-6.00;99.90
1778;DHT22;886;50.082;8.222;2022-12-18T04:42:55;-5.90;99.90
1778;DHT22;886;50.082;8.222;2022-12-18T04:45:22;-5.80;99.90
1778;DHT22;886;50.082;8.222;2022-12-18T04:47:49;-5.80;99.90
1778;DHT22;886;50.082;8.222;2022-12-18T04:50:20;-5.90;99.90
1778;DHT22;886;50.082;8.222;2022-12-18T04:52:47;-5.80;99.90
1778;DHT22;886;50.082;8.222;2022-12-18T04:55:14;-5.80;99.90
1778;DHT22;886;50.082;8.222;2022-12-18T04:57:41;-5.80;99.90
1778;DHT22;886;50.082;8.222;2022-12-18T05:00:10;-5.80;99.90
1778;DHT22;886;50.082;8.222;2022-12-18T05:02:39;-5.70;99.90
1778;DHT22;886;50.082;8.222;2022-12-18T05:05:07;-5.80;99.90
1778;DHT22;886;50.082;8.222;2022-12-18T05:07:36;-5.80;99.90
1778;DHT22;886;50.082;8.222;2022-12-18T05:10:03;-5.70;99.90
1778;DHT22;886;50.082;8.222;2022-12-18T05:12:37;-5.80;99.90
1778;DHT22;886;50.082;8.222;2022-12-18T05:15:27;-5.90;99.90
1778;DHT22;886;50.082;8.222;2022-12-18T05:17:56;-5.70;99.90
1778;DHT22;886;50.082;8.222;2022-12-18T05:20:24;-5.90;99.90
1778;DHT22;886;50.082;8.222;2022-12-18T05:22:53;-5.90;99.90
1778;DHT22;886;50.082;8.222;2022-12-18T05:25:21;-5.90;99.90
1778;DHT22;886;50.082;8.222;2022-12-18T05:27:49;-5.90;99.90
1778;DHT22;886;50.082;8.222;2022-12-18T05:30:17;-5.80;99.90
1778;DHT22;886;50.082;8.222;2022-12-18T05:32:44;-5.80;99.90
1778;DHT22;886;50.082;8.222;2022-12-18T05:35:12;-5.80;99.90
1778;DHT22;886;50.082;8.222;2022-12-18T05:37:48;-5.70;99.90
1778;DHT22;886;50.082;8.222;2022-12-18T05:40:16;-5.60;99.90
1778;DHT22;886;50.082;8.222;2022-12-18T05:42:46;-5.80;99.90
1778;DHT22;886;50.082;8.222;2022-12-18T05:45:13;-5.90;99.90
1778;DHT22;886;50.082;8.222;2022-12-18T05:47:41;-5.90;99.90
1778;DHT22;886;50.082;8.222;2022-12-18T05:50:08;-5.90;99.90
1778;DHT22;886;50.082;8.222;2022-12-18T05:52:41;-5.80;99.90
1778;DHT22;886;50.082;8.222;2022-12-18T05:55:08;-5.80;99.90
1778;DHT22;886;50.082;8.222;2022-12-18T05:57:37;-5.80;99.90
1778;DHT22;886;50.082;8.222;2022-12-18T06:00:04;-5.80;99.90
1778;DHT22;886;50.082;8.222;2022-12-18T06:02:38;-5.80;99.90
1778;DHT22;886;50.082;8.222;2022-12-18T06:05:06;-5.90;99.90
1778;DHT22;886;50.082;8.222;2022-12-18T06:07:33;-5.90;99.90
1778;DHT22;886;50.082;8.222;2022-12-18T06:10:00;-5.90;99.90
1778;DHT22;886;50.082;8.222;2022-12-18T06:12:33;-5.90;99.90
1778;DHT22;886;50.082;8.222;2022-12-18T06:15:02;-5.80;99.90
1778;DHT22;886;50.082;8.222;2022-12-18T06:17:30;-5.80;99.90
1778;DHT22;886;50.082;8.222;2022-12-18T06:19:58;-5.80;99.90
1778;DHT22;886;50.082;8.222;2022-12-18T06:22:25;-5.80;99.90
1778;DHT22;886;50.082;8.222;2022-12-18T06:24:53;-5.90;99.90
1778;DHT22;886;50.082;8.222;2022-12-18T06:27:20;-5.80;99.90
1778;DHT22;886;50.082;8.222;2022-12-18T06:29:47;-5.90;99.90
1778;DHT22;886;50.082;8.222;2022-12-18T06:32:18;-5.90;99.90
1778;DHT22;886;50.082;8.222;2022-12-18T06:34:45;-5.90;99.90
1778;DHT22;886;50.082;8.222;2022-12-18T06:37:12;-5.90;99.90
1778;DHT22;886;50.082;8.222;2022-12-18T06:39:39;-5.80;99.90
1778;DHT22;886;50.082;8.222;2022-12-18T06:42:09;-6.00;99.90
1778;DHT22;886;50.082;8.222;2022-12-18T06:44:42;-5.90;99.90
1778;DHT22;886;50.082;8.222;2022-12-18T06:47:11;-5.90;99.90
1778;DHT22;886;50.082;8.222;2022-12-18T06:49:39;-5.80;99.90
1778;DHT22;886;50.082;8.222;2022-12-18T06:52:06;-5.70;99.90
1778;DHT22;886;50.082;8.222;2022-12-18T06:54:33;-5.80;99.90
1778;DHT22;886;50.082;8.222;2022-12-18T06:57:01;-5.80;99.90
1778;DHT22;886;50.082;8.222;2022-12-18T06:59:28;-5.80;99.90
1778;DHT22;886;50.082;8.222;2022-12-18T07:01:55;-5.80;99.90
1778;DHT22;886;50.082;8.222;2022-12-18T07:04:27;-5.70;99.90
1778;DHT22;886;50.082;8.222;2022-12-18T07:06:56;-5.70;99.90
1778;DHT22;886;50.082;8.222;2022-12-18T07:09:24;-5.80;99.90
1778;DHT22;886;50.082;8.222;2022-12-18T07:11:52;-5.80;99.90
1778;DHT22;886;50.082;8.222;2022-12-18T07:14:21;-5.90;99.90
1778;DHT22;886;50.082;8.222;2022-12-18T07:16:48;-5.70;99.90
1778;DHT22;886;50.082;8.222;2022-12-18T07:19:15;-5.80;99.90
1778;DHT22;886;50.082;8.222;2022-12-18T07:21:42;-5.80;99.90
1778;DHT22;886;50.082;8.222;2022-12-18T07:24:14;-5.80;99.90
1778;DHT22;886;50.082;8.222;2022-12-18T07:26:41;-5.80;99.90
1778;DHT22;886;50.082;8.222;2022-12-18T07:29:08;-5.90;99.90
1778;DHT22;886;50.082;8.222;2022-12-18T07:31:35;-5.80;99.90
1778;DHT22;886;50.082;8.222;2022-12-18T07:34:02;-5.80;99.90
1778;DHT22;886;50.082;8.222;2022-12-18T07:36:29;-5.90;99.90
1778;DHT22;886;50.082;8.222;2022-12-18T07:38:56;-5.90;99.90
1778;DHT22;886;50.082;8.222;2022-12-18T07:41:24;-6.00;99.90
1778;DHT22;886;50.082;8.222;2022-12-18T07:43:51;-6.10;99.90
1778;DHT22;886;50.082;8.222;2022-12-18T07:46:18;-6.00;99.90
1778;DHT22;886;50.082;8.222;2022-12-18T07:48:46;-6.00;99.90
1778;DHT22;886;50.082;8.222;2022-12-18T07:51:17;-6.00;99.90
1778;DHT22;886;50.082;8.222;2022-12-18T07:53:45;-5.90;99.90
1778;DHT22;886;50.082;8.222;2022-12-18T07:56:15;-5.90;99.90
1778;DHT22;886;50.082;8.222;2022-12-18T07:58:59;-5.90;99.90
1778;DHT22;886;50.082;8.222;2022-12-18T08:01:26;-5.80;99.90
1778;DHT22;886;50.082;8.222;2022-12-18T08:03:54;-5.70;99.90
1778;DHT22;886;50.082;8.222;2022-12-18T08:06:21;-5.80;99.90
1778;DHT22;886;50.082;8.222;2022-12-18T08:08:51;-5.70;99.90
1778;DHT22;886;50.082;8.222;2022-12-18T08:11:26;-5.60;99.90
1778;DHT22;886;50.082;8.222;2022-12-18T08:13:54;-5.70;99.90
1778;DHT22;886;50.082;8.222;2022-12-18T08:16:26;-5.60;99.90
1778;DHT22;886;50.082;8.222;2022-12-18T08:18:53;-5.60;99.90
1778;DHT22;886;50.082;8.222;2022-12-18T08:21:31;-5.60;99.90
1778;DHT22;886;50.082;8.222;2022-12-18T08:24:00;-5.50;99.90
1778;DHT22;886;50.082;8.222;2022-12-18T08:26:34;-5.50;99.90
1778;DHT22;886;50.082;8.222;2022-12-18T08:29:01;-5.40;99.90
1778;DHT22;886;50.082;8.222;2022-12-18T08:31:30;-5.40;99.90
1778;DHT22;886;50.082;8.222;2022-12-18T08:33:57;-5.30;99.90
1778;DHT22;886;50.082;8.222;2022-12-18T08:36:28;-5.10;99.90
1778;DHT22;886;50.082;8.222;2022-12-18T08:38:56;-5.00;99.90
1778;DHT22;886;50.082;8.222;2022-12-18T08:41:30;-5.00;99.90
1778;DHT22;886;50.082;8.222;2022-12-18T08:43:58;-4.90;99.90
1778;DHT22;886;50.082;8.222;2022-12-18T08:46:52;-4.80;99.90
1778;DHT22;886;50.082;8.222;2022-12-18T08:49:22;-4.70;99.90
1778;DHT22;886;50.082;8.222;2022-12-18T08:51:54;-4.60;99.90
1778;DHT22;886;50.082;8.222;2022-12-18T08:54:21;-4.50;99.90
1778;DHT22;886;50.082;8.222;2022-12-18T08:56:48;-4.50;99.90
1778;DHT22;886;50.082;8.222;2022-12-18T08:59:16;-4.40;99.90
1778;DHT22;886;50.082;8.222;2022-12-18T09:01:46;-4.50;99.90
1778;DHT22;886;50.082;8.222;2022-12-18T09:04:15;-4.40;99.90
1778;DHT22;886;50.082;8.222;2022-12-18T09:06:42;-4.30;99.90
1778;DHT22;886;50.082;8.222;2022-12-18T09:09:10;-4.30;99.90
1778;DHT22;886;50.082;8.222;2022-12-18T09:11:37;-4.40;99.90
1778;DHT22;886;50.082;8.222;2022-12-18T09:14:04;-4.30;99.90
1778;DHT22;886;50.082;8.222;2022-12-18T09:16:32;-4.30;99.90
1778;DHT22;886;50.082;8.222;2022-12-18T09:19:03;-4.20;99.90
1778;DHT22;886;50.082;8.222;2022-12-18T09:21:38;-4.20;99.90
1778;DHT22;886;50.082;8.222;2022-12-18T09:24:13;-4.20;99.90
1778;DHT22;886;50.082;8.222;2022-12-18T09:26:46;-4.20;99.90
1778;DHT22;886;50.082;8.222;2022-12-18T09:29:13;-4.10;99.90
1778;DHT22;886;50.082;8.222;2022-12-18T09:31:41;-4.10;99.90
1778;DHT22;886;50.082;8.222;2022-12-18T09:34:15;-4.00;99.90
1778;DHT22;886;50.082;8.222;2022-12-18T09:36:44;-3.90;99.90
1778;DHT22;886;50.082;8.222;2022-12-18T09:39:13;-3.80;99.90
1778;DHT22;886;50.082;8.222;2022-12-18T09:41:43;-3.90;99.90
1778;DHT22;886;50.082;8.222;2022-12-18T09:44:30;-3.70;99.90
1778;DHT22;886;50.082;8.222;2022-12-18T09:47:10;-3.60;99.90
1778;DHT22;886;50.082;8.222;2022-12-18T09:49:42;-3.50;99.90
1778;DHT22;886;50.082;8.222;2022-12-18T09:52:16;-3.50;99.90
1778;DHT22;886;50.082;8.222;2022-12-18T09:54:50;-3.40;99.90
1778;DHT22;886;50.082;8.222;2022-12-18T09:57:22;-3.30;99.90
1778;DHT22;886;50.082;8.222;2022-12-18T09:59:53;-3.30;99.90
1778;DHT22;886;50.082;8.222;2022-12-18T10:02:30;-3.20;99.90
1778;DHT22;886;50.082;8.222;2022-12-18T10:05:06;-3.20;99.90
1778;DHT22;886;50.082;8.222;2022-12-18T10:07:47;-3.10;99.90
1778;DHT22;886;50.082;8.222;2022-12-18T10:10:26;-3.00;99.90
1778;DHT22;886;50.082;8.222;2022-12-18T10:13:05;-2.90;99.90
1778;DHT22;886;50.082;8.222;2022-12-18T10:15:40;-2.70;99.90
1778;DHT22;886;50.082;8.222;2022-12-18T10:18:25;-2.60;99.90
1778;DHT22;886;50.082;8.222;2022-12-18T10:21:03;-2.60;99.90
1778;DHT22;886;50.082;8.222;2022-12-18T10:23:42;-2.60;99.90
1778;DHT22;886;50.082;8.222;2022-12-18T10:26:17;-2.50;99.90
1778;DHT22;886;50.082;8.222;2022-12-18T10:28:45;-2.50;99.90
1778;DHT22;886;50.082;8.222;2022-12-18T10:31:15;-2.50;99.90
1778;DHT22;886;50.082;8.222;2022-12-18T10:33:43;-2.50;99.90
1778;DHT22;886;50.082;8.222;2022-12-18T10:36:11;-2.40;99.90
1778;DHT22;886;50.082;8.222;2022-12-18T10:38:40;-2.50;99.90
1778;DHT22;886;50.082;8.222;2022-12-18T10:41:24;-2.50;99.90
1778;DHT22;886;50.082;8.222;2022-12-18T10:44:18;-2.40;99.90
1778;DHT22;886;50.082;8.222;2022-12-18T10:46:49;-2.40;99.90
1778;DHT22;886;50.082;8.222;2022-12-18T10:49:21;-2.40;99.90
1778;DHT22;886;50.082;8.222;2022-12-18T10:51:50;-2.40;99.90
1778;DHT22;886;50.082;8.222;2022-12-18T10:54:21;-2.50;99.90
1778;DHT22;886;50.082;8.222;2022-12-18T10:56:49;-2.50;99.90
1778;DHT22;886;50.082;8.222;2022-12-18T10:59:17;-2.50;99.90
1778;DHT22;886;50.082;8.222;2022-12-18T11:01:48;-2.50;99.90
1778;DHT22;886;50.082;8.222;2022-12-18T11:04:20;-2.50;99.90
1778;DHT22;886;50.082;8.222;2022-12-18T11:06:59;-2.50;99.90
1778;DHT22;886;50.082;8.222;2022-12-18T11:09:30;-2.40;99.90
1778;DHT22;886;50.082;8.222;2022-12-18T11:12:02;-2.30;99.90
1778;DHT22;886;50.082;8.222;2022-12-18T11:14:34;-2.30;99.90
1778;DHT22;886;50.082;8.222;2022-12-18T11:17:19;-2.40;99.90
1778;DHT22;886;50.082;8.222;2022-12-18T11:19:53;-2.40;99.90
1778;DHT22;886;50.082;8.222;2022-12-18T11:22:23;-2.40;99.90
1778;DHT22;886;50.082;8.222;2022-12-18T11:25:05;-2.40;99.90
1778;DHT22;886;50.082;8.222;2022-12-18T11:28:03;-2.30;99.90
1778;DHT22;886;50.082;8.222;2022-12-18T11:30:32;-2.20;99.90
1778;DHT22;886;50.082;8.222;2022-12-18T11:33:04;-2.20;99.90
1778;DHT22;886;50.082;8.222;2022-12-18T11:35:44;-2.30;99.90
1778;DHT22;886;50.082;8.222;2022-12-18T11:38:21;-2.20;99.90
1778;DHT22;886;50.082;8.222;2022-12-18T11:40:58;-2.30;99.90
1778;DHT22;886;50.082;8.222;2022-12-18T11:43:29;-2.30;99.90
1778;DHT22;886;50.082;8.222;2022-12-18T11:46:03;-2.20;99.90
1778;DHT22;886;50.082;8.222;2022-12-18T11:48:43;-2.20;99.90
1778;DHT22;886;50.082;8.222;2022-12-18T11:51:14;-2.20;99.90
1778;DHT22;886;50.082;8.222;2022-12-18T11:53:45;-2.20;99.90
1778;DHT22;886;50.082;8.222;2022-12-18T11:56:29;-2.20;99.90
1778;DHT22;886;50.082;8.222;2022-12-18T11:59:09;-2.40;99.90
1778;DHT22;886;50.082;8.222;2022-12-18T12:01:50;-2.40;99.90
1778;DHT22;886;50.082;8.222;2022-12-18T12:04:36;-2.40;99.90
1778;DHT22;886;50.082;8.222;2022-12-18T12:07:23;-2.40;99.90
1778;DHT22;886;50.082;8.222;2022-12-18T12:10:04;-2.30;99.90
1778;DHT22;886;50.082;8.222;2022-12-18T12:12:59;-2.30;99.90
1778;DHT22;886;50.082;8.222;2022-12-18T12:15:42;-2.30;99.90
1778;DHT22;886;50.082;8.222;2022-12-18T12:18:24;-2.30;99.90
1778;DHT22;886;50.082;8.222;2022-12-18T12:21:02;-2.30;99.90
1778;DHT22;886;50.082;8.222;2022-12-18T12:23:39;-2.30;99.90
1778;DHT22;886;50.082;8.222;2022-12-18T12:26:12;-2.30;99.90
1778;DHT22;886;50.082;8.222;2022-12-18T12:28:59;-2.20;99.90
1778;DHT22;886;50.082;8.222;2022-12-18T12:31:50;-2.20;99.90
1778;DHT22;886;50.082;8.222;2022-12-18T12:34:26;-2.10;99.90
1778;DHT22;886;50.082;8.222;2022-12-18T12:37:08;-2.20;99.90
1778;DHT22;886;50.082;8.222;2022-12-18T12:39:47;-2.30;99.90
1778;DHT22;886;50.082;8.222;2022-12-18T12:42:25;-2.40;99.90
1778;DHT22;886;50.082;8.222;2022-12-18T12:45:21;-2.30;99.90
1778;DHT22;886;50.082;8.222;2022-12-18T12:47:54;-2.30;99.90
1778;DHT22;886;50.082;8.222;2022-12-18T12:50:26;-2.30;99.90
1778;DHT22;886;50.082;8.222;2022-12-18T12:52:55;-2.20;99.90
1778;DHT22;886;50.082;8.222;2022-12-18T12:55:25;-2.30;99.90
1778;DHT22;886;50.082;8.222;2022-12-18T12:58:01;-2.20;99.90
1778;DHT22;886;50.082;8.222;2022-12-18T13:00:40;-2.20;99.90
1778;DHT22;886;50.082;8.222;2022-12-18T13:03:15;-2.20;99.90
1778;DHT22;886;50.082;8.222;2022-12-18T13:06:04;-2.20;99.90
1778;DHT22;886;50.082;8.222;2022-12-18T13:08:53;-2.20;99.90
1778;DHT22;886;50.082;8.222;2022-12-18T13:11:37;-2.20;99.90
1778;DHT22;886;50.082;8.222;2022-12-18T13:14:31;-2.10;99.90
1778;DHT22;886;50.082;8.222;2022-12-18T13:17:27;-2.20;99.90
1778;DHT22;886;50.082;8.222;2022-12-18T13:20:06;-2.30;99.90
1778;DHT22;886;50.082;8.222;2022-12-18T13:22:36;-2.20;99.90
1778;DHT22;886;50.082;8.222;2022-12-18T13:25:29;-2.10;99.90
1778;DHT22;886;50.082;8.222;2022-12-18T13:28:05;-2.00;99.90
1778;DHT22;886;50.082;8.222;2022-12-18T13:30:47;-2.00;99.90
1778;DHT22;886;50.082;8.222;2022-12-18T13:33:49;-2.10;99.90
1778;DHT22;886;50.082;8.222;2022-12-18T13:36:36;-2.00;99.90
1778;DHT22;886;50.082;8.222;2022-12-18T13:39:20;-2.20;99.90
1778;DHT22;886;50.082;8.222;2022-12-18T13:45:39;-2.30;99.90
1778;DHT22;886;50.082;8.222;2022-12-18T13:48:22;-2.30;99.90
1778;DHT22;886;50.082;8.222;2022-12-18T13:51:00;-2.20;99.90
1778;DHT22;886;50.082;8.222;2022-12-18T13:53:34;-2.30;99.90
1778;DHT22;886;50.082;8.222;2022-12-18T13:56:05;-2.20;99.90
1778;DHT22;886;50.082;8.222;2022-12-18T13:58:33;-2.10;99.90
1778;DHT22;886;50.082;8.222;2022-12-18T14:01:00;-2.10;99.90
1778;DHT22;886;50.082;8.222;2022-12-18T14:03:29;-2.10;99.90
1778;DHT22;886;50.082;8.222;2022-12-18T14:06:03;-2.20;99.90
1778;DHT22;886;50.082;8.222;2022-12-18T14:08:37;-2.20;99.90
1778;DHT22;886;50.082;8.222;2022-12-18T14:11:07;-2.20;99.90
1778;DHT22;886;50.082;8.222;2022-12-18T14:13:46;-2.10;99.90
1778;DHT22;886;50.082;8.222;2022-12-18T14:16:15;-2.10;99.90
1778;DHT22;886;50.082;8.222;2022-12-18T14:18:45;-2.10;99.90
1778;DHT22;886;50.082;8.222;2022-12-18T14:21:21;-2.20;99.90
1778;DHT22;886;50.082;8.222;2022-12-18T14:24:03;-2.10;99.90
1778;DHT22;886;50.082;8.222;2022-12-18T14:26:32;-2.10;99.90
1778;DHT22;886;50.082;8.222;2022-12-18T14:29:19;-2.10;99.90
1778;DHT22;886;50.082;8.222;2022-12-18T14:32:21;-2.00;99.90
1778;DHT22;886;50.082;8.222;2022-12-18T14:34:50;-2.00;99.90
1778;DHT22;886;50.082;8.222;2022-12-18T14:37:21;-2.10;99.90
1778;DHT22;886;50.082;8.222;2022-12-18T14:39:53;-2.10;99.90
1778;DHT22;886;50.082;8.222;2022-12-18T14:42:25;-2.10;99.90
1778;DHT22;886;50.082;8.222;2022-12-18T14:48:09;-2.10;99.90
1778;DHT22;886;50.082;8.222;2022-12-18T14:50:45;-2.10;99.90
1778;DHT22;886;50.082;8.222;2022-12-18T14:53:26;-2.30;99.90
1778;DHT22;886;50.082;8.222;2022-12-18T14:56:15;-2.20;99.90
1778;DHT22;886;50.082;8.222;2022-12-18T14:58:47;-2.20;99.90
1778;DHT22;886;50.082;8.222;2022-12-18T15:01:24;-2.10;99.90
1778;DHT22;886;50.082;8.222;2022-12-18T15:03:54;-2.00;99.90
1778;DHT22;886;50.082;8.222;2022-12-18T15:06:29;-2.10;99.90
1778;DHT22;886;50.082;8.222;2022-12-18T15:09:01;-2.10;99.90
1778;DHT22;886;50.082;8.222;2022-12-18T15:11:36;-2.10;99.90
1778;DHT22;886;50.082;8.222;2022-12-18T15:14:32;-2.20;99.90
1778;DHT22;886;50.082;8.222;2022-12-18T15:17:03;-2.20;99.90
1778;DHT22;886;50.082;8.222;2022-12-18T15:19:36;-2.20;99.90
1778;DHT22;886;50.082;8.222;2022-12-18T15:22:22;-2.20;99.90
1778;DHT22;886;50.082;8.222;2022-12-18T15:24:54;-2.20;99.90
1778;DHT22;886;50.082;8.222;2022-12-18T15:27:30;-2.20;99.90
1778;DHT22;886;50.082;8.222;2022-12-18T15:32:45;-2.20;99.90
1778;DHT22;886;50.082;8.222;2022-12-18T15:35:18;-2.20;99.90
1778;DHT22;886;50.082;8.222;2022-12-18T15:37:47;-2.20;99.90
1778;DHT22;886;50.082;8.222;2022-12-18T15:40:17;-2.10;99.90
1778;DHT22;886;50.082;8.222;2022-12-18T15:42:46;-2.10;99.90
1778;DHT22;886;50.082;8.222;2022-12-18T15:45:32;-2.00;99.90
1778;DHT22;886;50.082;8.222;2022-12-18T15:48:04;-2.00;99.90
1778;DHT22;886;50.082;8.222;2022-12-18T15:50:35;-2.00;99.90
1778;DHT22;886;50.082;8.222;2022-12-18T15:53:03;-2.10;99.90
1778;DHT22;886;50.082;8.222;2022-12-18T15:55:32;-2.10;99.90
1778;DHT22;886;50.082;8.222;2022-12-18T15:58:25;-2.10;99.90
1778;DHT22;886;50.082;8.222;2022-12-18T16:00:52;-2.10;99.90
1778;DHT22;886;50.082;8.222;2022-12-18T16:03:19;-2.10;99.90
1778;DHT22;886;50.082;8.222;2022-12-18T16:05:47;-2.10;99.90
1778;DHT22;886;50.082;8.222;2022-12-18T16:08:14;-2.00;99.90
1778;DHT22;886;50.082;8.222;2022-12-18T16:10:42;-2.00;99.90
1778;DHT22;886;50.082;8.222;2022-12-18T16:13:10;-1.90;99.90
1778;DHT22;886;50.082;8.222;2022-12-18T16:15:42;-2.00;99.90
1778;DHT22;886;50.082;8.222;2022-12-18T16:18:09;-1.90;99.90
1778;DHT22;886;50.082;8.222;2022-12-18T16:20:38;-1.90;99.90
1778;DHT22;886;50.082;8.222;2022-12-18T16:23:06;-1.80;99.90
1778;DHT22;886;50.082;8.222;2022-12-18T16:25:39;-1.90;99.90
1778;DHT22;886;50.082;8.222;2022-12-18T16:28:07;-1.80;99.90
1778;DHT22;886;50.082;8.222;2022-12-18T16:30:34;-1.80;99.90
1778;DHT22;886;50.082;8.222;2022-12-18T16:33:04;-1.80;99.90
1778;DHT22;886;50.082;8.222;2022-12-18T16:35:33;-1.80;99.90
1778;DHT22;886;50.082;8.222;2022-12-18T16:38:03;-1.80;99.90
1778;DHT22;886;50.082;8.222;2022-12-18T16:40:31;-1.90;99.90
1778;DHT22;886;50.082;8.222;2022-12-18T16:42:59;-1.80;99.90
1778;DHT22;886;50.082;8.222;2022-12-18T16:45:27;-1.80;99.90
1778;DHT22;886;50.082;8.222;2022-12-18T16:47:59;-1.80;99.90
1778;DHT22;886;50.082;8.222;2022-12-18T16:50:26;-1.80;99.90
1778;DHT22;886;50.082;8.222;2022-12-18T16:52:53;-1.80;99.90
1778;DHT22;886;50.082;8.222;2022-12-18T16:55:20;-1.80;99.90
1778;DHT22;886;50.082;8.222;2022-12-18T16:57:47;-1.80;99.90
1778;DHT22;886;50.082;8.222;2022-12-18T17:00:15;-1.70;99.90
1778;DHT22;886;50.082;8.222;2022-12-18T17:02:45;-1.70;99.90
1778;DHT22;886;50.082;8.222;2022-12-18T17:05:12;-1.70;99.90